createdAt,value
2024-02-19T00:00:25.942Z,17.80
2024-02-19T00:02:54.021Z,17.80
2024-02-19T00:05:22.099Z,17.80
2024-02-19T00:07:50.124Z,17.80
2024-02-19T00:10:19.549Z,17.80
2024-02-19T00:12:49.395Z,17.80
2024-02-19T00:15:17.489Z,17.80
2024-02-19T00:17:45.567Z,17.80
2024-02-19T00:20:13.804Z,17.80
2024-02-19T00:22:42.096Z,17.80
2024-02-19T00:25:10.821Z,17.80
2024-02-19T00:27:40.260Z,17.90
2024-02-19T00:30:09.562Z,18.00
2024-02-19T00:32:37.653Z,18.10
2024-02-19T00:35:06.397Z,18.00
2024-02-19T00:37:34.354Z,18.00
2024-02-19T00:40:02.427Z,18.00
2024-02-19T00:42:30.497Z,18.00
2024-02-19T00:44:59.838Z,18.00
2024-02-19T00:47:28.168Z,17.90
2024-02-19T00:49:56.827Z,17.90
2024-02-19T00:52:24.878Z,17.80
2024-02-19T00:54:52.900Z,17.80
2024-02-19T00:57:20.950Z,17.80
2024-02-19T00:59:48.972Z,17.80
2024-02-19T01:02:18.330Z,17.80
2024-02-19T01:04:48.025Z,17.80
2024-02-19T01:07:16.748Z,17.80
2024-02-19T01:09:44.887Z,17.80
2024-02-19T01:12:12.919Z,17.90
2024-02-19T01:14:40.904Z,17.90
2024-02-19T01:17:09.717Z,17.90
2024-02-19T01:19:40.886Z,17.90
2024-02-19T01:22:08.987Z,17.90
2024-02-19T01:24:37.393Z,17.90
2024-02-19T01:27:07.878Z,17.90
2024-02-19T01:29:36.337Z,17.90
2024-02-19T01:32:05.327Z,17.90
2024-02-19T01:34:33.444Z,17.80
2024-02-19T01:37:05.757Z,17.80
2024-02-19T01:39:36.030Z,17.80
2024-02-19T01:42:04.786Z,17.80
2024-02-19T01:44:32.867Z,17.80
2024-02-19T01:47:00.831Z,17.80
2024-02-19T01:49:31.874Z,17.80
2024-02-19T01:52:00.846Z,17.70
2024-02-19T01:54:30.514Z,17.80
2024-02-19T01:56:58.498Z,17.90
2024-02-19T01:59:26.526Z,17.90
2024-02-19T02:01:55.926Z,17.90
2024-02-19T02:04:23.949Z,17.90
2024-02-19T02:06:51.963Z,17.90
2024-02-19T02:09:19.943Z,17.90
2024-02-19T02:11:49.283Z,17.90
2024-02-19T02:14:17.250Z,17.90
2024-02-19T02:16:45.248Z,17.80
2024-02-19T02:19:13.308Z,17.80
2024-02-19T02:21:42.747Z,17.80
2024-02-19T02:24:10.797Z,17.80
2024-02-19T02:26:41.003Z,17.80
2024-02-19T02:29:09.002Z,17.80
2024-02-19T02:31:36.960Z,17.80
2024-02-19T02:34:05.148Z,17.80
2024-02-19T02:36:33.276Z,17.70
2024-02-19T02:39:01.309Z,17.80
2024-02-19T02:41:29.327Z,17.80
2024-02-19T02:43:58.684Z,17.80
2024-02-19T02:46:26.688Z,17.80
2024-02-19T02:48:54.892Z,17.70
2024-02-19T02:51:23.085Z,17.70
2024-02-19T02:53:51.075Z,17.70
2024-02-19T02:56:19.996Z,17.80
2024-02-19T02:58:48.444Z,17.90
2024-02-19T03:01:19.040Z,18.00
2024-02-19T03:03:47.149Z,18.00
2024-02-19T03:06:15.176Z,18.00
2024-02-19T03:08:43.194Z,17.90
2024-02-19T03:11:11.284Z,17.90
2024-02-19T03:13:39.723Z,17.90
2024-02-19T03:16:08.283Z,17.90
2024-02-19T03:18:37.759Z,17.80
2024-02-19T03:21:08.927Z,17.80
2024-02-19T03:23:37.131Z,17.80
2024-02-19T03:26:05.664Z,17.80
2024-02-19T03:28:34.170Z,17.80
2024-02-19T03:31:02.788Z,17.80
2024-02-19T03:33:30.868Z,17.70
2024-02-19T03:36:00.775Z,17.70
2024-02-19T03:38:28.767Z,17.80
2024-02-19T03:40:56.748Z,17.80
2024-02-19T03:43:26.762Z,17.90
2024-02-19T03:45:56.099Z,17.90
2024-02-19T03:48:24.242Z,17.90
2024-02-19T03:50:52.294Z,17.90
2024-02-19T03:53:21.664Z,17.80
2024-02-19T03:55:49.686Z,17.80
2024-02-19T03:58:18.051Z,17.80
2024-02-19T04:00:46.127Z,17.80
2024-02-19T04:03:14.356Z,17.80
2024-02-19T04:05:42.780Z,17.70
2024-02-19T04:08:10.757Z,17.70
2024-02-19T04:10:40.261Z,17.70
2024-02-19T04:13:08.285Z,17.70
2024-02-19T04:15:36.412Z,17.70
2024-02-19T04:18:04.912Z,17.70
2024-02-19T04:20:33.000Z,17.70
2024-02-19T04:23:02.202Z,17.70
2024-02-19T04:25:30.238Z,17.70
2024-02-19T04:27:59.672Z,17.80
2024-02-19T04:30:27.652Z,17.80
2024-02-19T04:32:55.736Z,17.80
2024-02-19T04:35:23.850Z,17.80
2024-02-19T04:37:51.834Z,17.80
2024-02-19T04:40:19.953Z,17.80
2024-02-19T04:42:48.107Z,17.80
2024-02-19T04:45:17.855Z,17.80
2024-02-19T04:47:45.909Z,17.70
2024-02-19T04:50:14.040Z,17.70
2024-02-19T04:52:42.111Z,17.70
2024-02-19T04:55:11.153Z,17.70
2024-02-19T04:57:39.266Z,17.70
2024-02-19T05:00:08.664Z,17.70
2024-02-19T05:02:37.953Z,17.70
2024-02-19T05:05:06.724Z,17.70
2024-02-19T05:07:35.573Z,17.70
2024-02-19T05:10:06.154Z,17.80
2024-02-19T05:12:34.211Z,17.90
2024-02-19T05:15:02.400Z,17.90
2024-02-19T05:17:30.646Z,17.90
2024-02-19T05:20:00.083Z,17.90
2024-02-19T05:22:28.205Z,17.90
2024-02-19T05:24:56.535Z,17.90
2024-02-19T05:27:25.382Z,17.80
2024-02-19T05:29:53.717Z,17.80
2024-02-19T05:32:24.096Z,17.80
2024-02-19T05:34:52.080Z,17.80
2024-02-19T05:37:21.563Z,17.70
2024-02-19T05:39:49.783Z,17.70
2024-02-19T05:42:17.832Z,17.70
2024-02-19T05:44:45.863Z,17.70
2024-02-19T05:47:13.840Z,17.70
2024-02-19T05:49:45.910Z,17.70
2024-02-19T05:52:14.430Z,17.70
2024-02-19T05:54:44.532Z,17.70
2024-02-19T05:57:12.602Z,17.80
2024-02-19T05:59:40.567Z,17.90
2024-02-19T06:02:10.563Z,17.90
2024-02-19T06:04:38.726Z,17.90
2024-02-19T06:07:06.893Z,17.90
2024-02-19T06:09:34.922Z,17.80
2024-02-19T06:12:04.725Z,17.80
2024-02-19T06:14:32.764Z,17.80
2024-02-19T06:17:00.749Z,17.80
2024-02-19T06:19:28.815Z,17.80
2024-02-19T06:21:56.862Z,17.70
2024-02-19T06:24:24.926Z,17.70
2024-02-19T06:26:52.926Z,17.70
2024-02-19T06:29:22.269Z,17.70
2024-02-19T06:31:53.193Z,17.70
2024-02-19T06:34:21.299Z,17.70
2024-02-19T06:36:49.423Z,17.70
2024-02-19T06:39:17.480Z,17.70
2024-02-19T06:41:45.622Z,17.70
2024-02-19T06:44:13.645Z,17.70
2024-02-19T06:46:42.973Z,17.70
2024-02-19T06:49:11.059Z,17.70
2024-02-19T06:51:39.172Z,17.70
2024-02-19T06:54:07.204Z,17.70
2024-02-19T06:56:35.200Z,17.80
2024-02-19T06:59:03.449Z,17.90
2024-02-19T07:01:31.607Z,18.00
2024-02-19T07:04:01.127Z,18.00
2024-02-19T07:06:29.290Z,17.90
2024-02-19T07:08:57.542Z,17.90
2024-02-19T07:11:25.545Z,17.90
2024-02-19T07:13:56.562Z,17.90
2024-02-19T07:16:24.724Z,17.80
2024-02-19T07:18:52.963Z,17.80
2024-02-19T07:21:22.544Z,17.80
2024-02-19T07:23:50.579Z,17.80
2024-02-19T07:26:18.680Z,17.80
2024-02-19T07:28:46.738Z,17.80
2024-02-19T07:31:14.791Z,17.80
2024-02-19T07:33:43.007Z,17.80
2024-02-19T07:36:12.024Z,17.70
2024-02-19T07:38:41.378Z,17.70
2024-02-19T07:41:16.046Z,17.80
2024-02-19T07:43:44.566Z,17.90
2024-02-19T07:46:12.743Z,17.90
2024-02-19T07:48:40.926Z,17.90
2024-02-19T07:51:09.455Z,17.90
2024-02-19T07:53:37.441Z,17.90
2024-02-19T07:56:07.133Z,17.90
2024-02-19T07:58:35.215Z,17.80
2024-02-19T08:01:05.457Z,17.80
2024-02-19T08:03:34.082Z,17.80
2024-02-19T08:06:02.344Z,17.70
2024-02-19T08:08:30.996Z,17.70
2024-02-19T08:10:59.517Z,17.80
2024-02-19T08:13:29.101Z,17.80
2024-02-19T08:15:57.211Z,17.90
2024-02-19T08:18:25.397Z,17.80
2024-02-19T08:20:53.606Z,17.80
2024-02-19T08:23:21.610Z,17.80
2024-02-19T08:25:49.756Z,17.80
2024-02-19T08:28:17.844Z,17.80
2024-02-19T08:30:47.228Z,17.80
2024-02-19T08:33:15.236Z,17.70
2024-02-19T08:35:43.624Z,17.70
2024-02-19T08:38:12.254Z,17.70
2024-02-19T08:40:40.648Z,17.70
2024-02-19T08:43:11.952Z,17.80
2024-02-19T08:45:40.972Z,17.90
2024-02-19T08:48:10.908Z,17.90
2024-02-19T08:50:39.056Z,17.90
2024-02-19T08:53:07.414Z,17.80
2024-02-19T08:55:35.800Z,17.80
2024-02-19T08:58:04.205Z,17.80
2024-02-19T09:00:34.057Z,17.80
2024-02-19T09:03:02.871Z,17.80
2024-02-19T09:05:32.339Z,17.80
2024-02-19T09:08:01.589Z,17.80
2024-02-19T09:10:29.740Z,17.70
2024-02-19T09:12:57.969Z,17.80
2024-02-19T09:15:26.486Z,17.80
2024-02-19T09:17:54.537Z,17.80
2024-02-19T09:20:22.608Z,17.70
2024-02-19T09:22:52.132Z,17.70
2024-02-19T09:25:20.240Z,17.70
2024-02-19T09:27:48.283Z,17.70
2024-02-19T09:30:17.080Z,17.70
2024-02-19T09:32:45.152Z,17.70
2024-02-19T09:35:13.353Z,17.70
2024-02-19T09:37:41.406Z,17.70
2024-02-19T09:40:13.616Z,17.70
2024-02-19T09:42:41.802Z,17.80
2024-02-19T09:45:11.501Z,17.90
2024-02-19T09:47:40.379Z,18.00
2024-02-19T09:50:10.273Z,18.00
2024-02-19T09:52:38.599Z,17.90
2024-02-19T09:55:07.782Z,17.90
2024-02-19T09:57:37.215Z,18.00
2024-02-19T10:00:06.943Z,17.90
2024-02-19T10:02:39.185Z,17.90
2024-02-19T10:05:12.592Z,17.90
2024-02-19T10:07:41.801Z,17.80
2024-02-19T10:10:10.962Z,17.80
2024-02-19T10:12:42.223Z,17.80
2024-02-19T10:15:11.004Z,17.80
2024-02-19T10:17:39.046Z,17.80
2024-02-19T10:20:08.290Z,17.80
2024-02-19T10:22:36.367Z,17.70
2024-02-19T10:25:08.394Z,17.70
2024-02-19T10:27:36.598Z,17.80
2024-02-19T10:30:10.347Z,17.80
2024-02-19T10:32:38.397Z,17.90
2024-02-19T10:35:07.256Z,17.80
2024-02-19T10:37:36.944Z,17.80
2024-02-19T10:40:07.678Z,17.80
2024-02-19T10:42:35.719Z,17.80
2024-02-19T10:45:05.875Z,17.80
2024-02-19T10:47:33.907Z,17.80
2024-02-19T10:50:02.848Z,17.80
2024-02-19T10:52:32.589Z,17.80
2024-02-19T10:55:09.954Z,17.80
2024-02-19T10:57:49.937Z,17.90
2024-02-19T11:00:19.868Z,17.90
2024-02-19T11:02:49.256Z,17.90
2024-02-19T11:05:18.667Z,18.00
2024-02-19T11:07:46.666Z,17.90
2024-02-19T11:10:15.152Z,17.90
2024-02-19T11:12:43.290Z,17.90
2024-02-19T11:15:17.362Z,17.90
2024-02-19T11:17:49.787Z,17.90
2024-02-19T11:20:26.784Z,17.80
2024-02-19T11:23:00.071Z,17.80
2024-02-19T11:25:28.181Z,17.80
2024-02-19T11:27:56.310Z,17.80
2024-02-19T11:30:24.314Z,17.80
2024-02-19T11:33:02.509Z,17.80
2024-02-19T11:35:33.425Z,17.70
2024-02-19T11:38:03.678Z,17.70
2024-02-19T11:40:33.560Z,17.80
2024-02-19T11:43:02.327Z,17.80
2024-02-19T11:45:31.283Z,17.80
2024-02-19T11:47:59.521Z,17.80
2024-02-19T11:50:32.714Z,17.80
2024-02-19T11:53:01.016Z,17.80
2024-02-19T11:55:30.886Z,17.80
2024-02-19T11:58:01.049Z,17.90
2024-02-19T12:00:32.388Z,17.90
2024-02-19T12:03:01.235Z,17.90
2024-02-19T12:05:30.881Z,17.90
2024-02-19T12:07:59.052Z,17.90
2024-02-19T12:10:28.348Z,17.90
2024-02-19T12:12:57.437Z,17.90
2024-02-19T12:15:25.526Z,17.90
2024-02-19T12:17:54.577Z,17.80
2024-02-19T12:20:22.957Z,17.80
2024-02-19T12:22:52.378Z,17.80
2024-02-19T12:25:20.663Z,17.90
2024-02-19T12:27:48.960Z,17.90
2024-02-19T12:30:16.999Z,18.00
2024-02-19T12:32:47.089Z,17.90
2024-02-19T12:35:17.122Z,17.90
2024-02-19T12:37:45.496Z,17.90
2024-02-19T12:40:15.207Z,17.90
2024-02-19T12:42:43.402Z,17.90
2024-02-19T12:45:11.752Z,17.90
2024-02-19T12:47:39.881Z,17.90
2024-02-19T12:50:09.608Z,17.90
2024-02-19T12:52:38.297Z,17.80
2024-02-19T12:55:07.662Z,17.80
2024-02-19T12:57:37.749Z,17.80
2024-02-19T13:00:08.394Z,17.80
2024-02-19T13:02:36.915Z,17.80
2024-02-19T13:05:05.417Z,17.80
2024-02-19T13:07:33.595Z,17.80
2024-02-19T13:10:01.792Z,17.80
2024-02-19T13:12:29.837Z,17.90
2024-02-19T13:15:00.303Z,18.00
2024-02-19T13:17:35.800Z,18.00
2024-02-19T13:20:11.238Z,18.00
2024-02-19T13:22:39.376Z,17.90
2024-02-19T13:25:08.217Z,18.00
2024-02-19T13:27:36.242Z,18.00
2024-02-19T13:30:06.378Z,17.90
2024-02-19T13:32:34.397Z,17.90
2024-02-19T13:35:03.743Z,17.90
2024-02-19T13:37:31.967Z,17.80
2024-02-19T13:40:00.030Z,17.90
2024-02-19T13:42:28.075Z,17.80
2024-02-19T13:44:56.130Z,17.80
2024-02-19T13:47:25.602Z,17.80
2024-02-19T13:49:53.730Z,17.80
2024-02-19T13:52:21.753Z,17.80
2024-02-19T13:54:50.309Z,17.80
2024-02-19T13:57:18.341Z,17.90
2024-02-19T13:59:46.415Z,18.00
2024-02-19T14:02:15.553Z,18.00
2024-02-19T14:04:45.368Z,18.00
2024-02-19T14:07:13.706Z,17.90
2024-02-19T14:09:42.733Z,17.90
2024-02-19T14:12:10.873Z,17.90
2024-02-19T14:14:38.864Z,17.90
2024-02-19T14:17:11.104Z,17.90
2024-02-19T14:19:41.486Z,17.80
2024-02-19T14:22:11.041Z,17.80
2024-02-19T14:24:39.088Z,17.80
2024-02-19T14:27:08.172Z,17.80
2024-02-19T14:29:36.125Z,17.80
2024-02-19T14:32:05.120Z,17.80
2024-02-19T14:34:34.025Z,17.80
2024-02-19T14:37:02.386Z,17.70
2024-02-19T14:39:31.941Z,17.80
2024-02-19T14:42:00.030Z,17.90
2024-02-19T14:44:28.001Z,18.00
2024-02-19T14:47:02.405Z,18.00
2024-02-19T14:49:35.000Z,18.00
2024-02-19T14:52:03.586Z,17.90
2024-02-19T14:54:33.474Z,17.90
2024-02-19T14:57:04.053Z,17.90
2024-02-19T14:59:33.029Z,17.90
2024-02-19T15:02:01.146Z,17.90
2024-02-19T15:04:29.294Z,17.80
2024-02-19T15:07:01.064Z,17.80
2024-02-19T15:09:29.278Z,17.80
2024-02-19T15:11:58.678Z,17.80
2024-02-19T15:14:26.707Z,17.80
2024-02-19T15:16:54.726Z,17.70
2024-02-19T15:19:22.779Z,17.70
2024-02-19T15:21:50.854Z,17.70
2024-02-19T15:24:18.933Z,17.70
2024-02-19T15:26:46.927Z,17.80
2024-02-19T15:29:18.232Z,17.80
2024-02-19T15:31:46.333Z,17.70
2024-02-19T15:34:14.455Z,17.70
2024-02-19T15:36:42.453Z,17.70
2024-02-19T15:39:11.201Z,17.80
2024-02-19T15:41:39.617Z,17.90
2024-02-19T15:44:07.826Z,17.90
2024-02-19T15:46:37.214Z,17.90
2024-02-19T15:49:05.425Z,17.90
2024-02-19T15:51:34.721Z,17.90
2024-02-19T15:54:03.262Z,17.90
2024-02-19T15:56:31.428Z,17.90
2024-02-19T15:58:59.471Z,17.90
2024-02-19T16:01:28.599Z,17.80
2024-02-19T16:03:58.067Z,17.80
2024-02-19T16:06:29.207Z,17.80
2024-02-19T16:08:57.845Z,17.80
2024-02-19T16:11:26.141Z,17.80
2024-02-19T16:13:55.215Z,17.70
2024-02-19T16:16:23.257Z,17.80
2024-02-19T16:18:51.427Z,17.70
2024-02-19T16:21:20.830Z,17.70
2024-02-19T16:23:48.943Z,17.80
2024-02-19T16:26:16.934Z,17.90
2024-02-19T16:28:44.905Z,18.00
2024-02-19T16:31:13.049Z,18.00
2024-02-19T16:33:42.266Z,18.00
2024-02-19T16:36:10.493Z,17.90
2024-02-19T16:38:41.910Z,17.90
2024-02-19T16:41:10.275Z,17.90
2024-02-19T16:43:38.389Z,17.90
2024-02-19T16:46:06.569Z,17.90
2024-02-19T16:48:39.531Z,17.80
2024-02-19T16:51:08.197Z,17.80
2024-02-19T16:53:36.292Z,17.80
2024-02-19T16:56:06.541Z,17.80
2024-02-19T16:58:35.796Z,17.80
2024-02-19T17:01:06.243Z,17.80
2024-02-19T17:03:34.640Z,17.80
2024-02-19T17:06:02.942Z,17.70
2024-02-19T17:08:32.344Z,17.80
2024-02-19T17:11:00.401Z,17.80
2024-02-19T17:13:29.823Z,17.80
2024-02-19T17:15:57.889Z,17.70
2024-02-19T17:18:26.060Z,17.70
2024-02-19T17:20:54.211Z,17.70
2024-02-19T17:23:24.265Z,17.80
2024-02-19T17:25:52.403Z,17.90
2024-02-19T17:28:22.779Z,18.00
2024-02-19T17:30:53.789Z,18.00
2024-02-19T17:33:22.707Z,18.00
2024-02-19T17:35:50.858Z,17.90
2024-02-19T17:38:18.890Z,17.90
2024-02-19T17:40:46.917Z,17.90
2024-02-19T17:43:14.957Z,17.90
2024-02-19T17:45:42.977Z,17.90
2024-02-19T17:48:14.436Z,17.90
2024-02-19T17:50:43.126Z,17.80
2024-02-19T17:53:11.284Z,17.80
2024-02-19T17:55:40.612Z,17.80
2024-02-19T17:58:08.854Z,17.80
2024-02-19T18:00:36.947Z,17.80
2024-02-19T18:03:05.449Z,17.80
2024-02-19T18:05:34.921Z,17.80
2024-02-19T18:08:03.605Z,17.80
2024-02-19T18:10:31.803Z,17.90
2024-02-19T18:12:59.839Z,17.90
2024-02-19T18:15:27.882Z,17.90
2024-02-19T18:17:58.057Z,18.00
2024-02-19T18:20:26.467Z,17.90
2024-02-19T18:22:57.020Z,17.90
2024-02-19T18:25:25.090Z,17.90
2024-02-19T18:27:53.150Z,17.90
2024-02-19T18:30:21.231Z,17.90
2024-02-19T18:32:48.301Z,17.80
2024-02-19T18:35:16.622Z,17.80
2024-02-19T18:37:45.018Z,17.80
2024-02-19T18:40:15.339Z,17.80
2024-02-19T18:42:45.951Z,17.80
2024-02-19T18:45:14.332Z,17.80
2024-02-19T18:47:45.286Z,17.80
2024-02-19T18:50:14.476Z,17.80
2024-02-19T18:52:42.614Z,17.80
2024-02-19T18:55:10.988Z,17.90
2024-02-19T18:57:40.403Z,18.00
2024-02-19T19:00:10.868Z,18.00
2024-02-19T19:02:39.275Z,18.00
2024-02-19T19:05:07.815Z,18.00
2024-02-19T19:07:36.233Z,17.90
2024-02-19T19:10:04.791Z,17.90
2024-02-19T19:12:32.962Z,17.90
2024-02-19T19:15:04.678Z,17.90
2024-02-19T19:17:32.985Z,17.90
2024-02-19T19:20:05.658Z,17.80
2024-02-19T19:22:33.887Z,17.80
2024-02-19T19:25:02.090Z,17.80
2024-02-19T19:27:30.190Z,17.80
2024-02-19T19:29:59.325Z,17.80
2024-02-19T19:32:30.243Z,17.80
2024-02-19T19:34:58.556Z,17.80
2024-02-19T19:37:26.717Z,17.80
2024-02-19T19:39:54.930Z,17.90
2024-02-19T19:42:23.011Z,17.90
2024-02-19T19:44:52.207Z,18.00
2024-02-19T19:47:20.217Z,18.00
2024-02-19T19:49:49.772Z,17.90
2024-02-19T19:52:19.494Z,17.90
2024-02-19T19:54:48.043Z,17.90
2024-02-19T19:57:16.208Z,17.90
2024-02-19T19:59:48.814Z,17.80
2024-02-19T20:02:17.312Z,17.80
2024-02-19T20:04:45.453Z,17.80
2024-02-19T20:07:15.291Z,17.80
2024-02-19T20:09:46.200Z,17.80
2024-02-19T20:12:15.307Z,17.80
2024-02-19T20:14:43.466Z,17.80
2024-02-19T20:17:12.498Z,17.80
2024-02-19T20:19:40.634Z,17.80
2024-02-19T20:22:12.091Z,17.80
2024-02-19T20:24:41.497Z,17.80
2024-02-19T20:27:09.492Z,17.90
2024-02-19T20:29:37.490Z,18.00
2024-02-19T20:32:09.244Z,18.00
2024-02-19T20:34:37.919Z,17.90
2024-02-19T20:37:06.204Z,17.90
2024-02-19T20:39:34.752Z,17.90
2024-02-19T20:42:05.779Z,17.90
2024-02-19T20:44:33.934Z,17.90
2024-02-19T20:47:01.924Z,17.90
2024-02-19T20:49:30.001Z,17.90
2024-02-19T20:51:58.503Z,17.90
2024-02-19T20:54:27.628Z,17.90
2024-02-19T20:56:57.071Z,17.90
2024-02-19T20:59:26.799Z,17.80
2024-02-19T21:01:55.136Z,17.80
2024-02-19T21:04:23.274Z,17.80
2024-02-19T21:06:51.432Z,17.80
2024-02-19T21:09:20.105Z,17.90
2024-02-19T21:11:48.104Z,17.90
2024-02-19T21:14:16.077Z,18.00
2024-02-19T21:16:45.490Z,18.00
2024-02-19T21:19:13.588Z,18.00
2024-02-19T21:21:41.622Z,18.00
2024-02-19T21:24:09.808Z,17.90
2024-02-19T21:26:37.805Z,17.90
2024-02-19T21:29:06.309Z,17.90
2024-02-19T21:31:34.494Z,17.90
2024-02-19T21:34:06.830Z,17.80
2024-02-19T21:36:36.935Z,17.80
2024-02-19T21:39:06.548Z,17.80
2024-02-19T21:41:34.928Z,17.80
2024-02-19T21:44:02.930Z,17.80
2024-02-19T21:46:31.561Z,17.80
2024-02-19T21:49:00.134Z,17.70
2024-02-19T21:51:29.518Z,17.70
2024-02-19T21:53:57.545Z,17.80
2024-02-19T21:56:25.670Z,17.80
2024-02-19T21:58:53.636Z,17.90
2024-02-19T22:01:22.696Z,17.80
2024-02-19T22:03:51.378Z,17.80
2024-02-19T22:06:19.534Z,17.80
2024-02-19T22:08:48.939Z,17.80
2024-02-19T22:11:20.520Z,17.80
2024-02-19T22:13:49.994Z,17.80
2024-02-19T22:16:18.062Z,17.80
2024-02-19T22:18:46.139Z,17.70
2024-02-19T22:21:14.948Z,17.70
2024-02-19T22:23:42.911Z,17.70
2024-02-19T22:26:12.260Z,17.70
2024-02-19T22:28:40.276Z,17.70
2024-02-19T22:31:09.380Z,17.70
2024-02-19T22:33:37.404Z,17.70
2024-02-19T22:36:06.105Z,17.70
2024-02-19T22:38:34.166Z,17.70
2024-02-19T22:41:02.169Z,17.80
2024-02-19T22:43:31.563Z,18.00
2024-02-19T22:45:59.691Z,18.10
2024-02-19T22:48:29.531Z,18.20
2024-02-19T22:50:57.605Z,18.40
2024-02-19T22:53:25.557Z,18.50
2024-02-19T22:55:53.758Z,18.70
2024-02-19T22:58:31.324Z,18.80
2024-02-19T23:01:05.368Z,18.90
2024-02-19T23:03:33.574Z,19.00
2024-02-19T23:06:01.642Z,19.10
2024-02-19T23:08:29.667Z,19.00
2024-02-19T23:10:57.816Z,18.90
2024-02-19T23:13:25.902Z,18.70
2024-02-19T23:15:53.961Z,18.60
2024-02-19T23:18:23.977Z,18.50
2024-02-19T23:20:52.097Z,18.40
2024-02-19T23:23:20.151Z,18.30
2024-02-19T23:25:51.918Z,18.20
2024-02-19T23:28:20.036Z,18.10
2024-02-19T23:30:48.613Z,18.10
2024-02-19T23:33:16.720Z,18.10
2024-02-19T23:35:47.256Z,18.00
2024-02-19T23:38:15.650Z,18.00
2024-02-19T23:40:43.693Z,17.90
2024-02-19T23:43:11.753Z,17.90
2024-02-19T23:45:39.750Z,17.90
2024-02-19T23:48:08.470Z,18.00
2024-02-19T23:50:36.469Z,18.10
2024-02-19T23:53:06.151Z,18.20
2024-02-19T23:55:34.195Z,18.20
2024-02-19T23:58:02.227Z,18.20
